sensor_id;sensor_type;location;lat;lon;timestamp;pressure;altitude;pressure_sealevel;temperature;humidity
44297;BME280;51842;47.450;8.654;2024-03-08T00:01:16;95157.41;;;-0.02;100.00
44297;BME280;51842;47.450;8.654;2024-03-08T00:03:44;95155.34;;;0.07;100.00
44297;BME280;51842;47.450;8.654;2024-03-08T00:06:10;95151.91;;;0.13;100.00
44297;BME280;51842;47.450;8.654;2024-03-08T00:08:36;95151.44;;;0.22;100.00
44297;BME280;51842;47.450;8.654;2024-03-08T00:11:01;95145.97;;;0.24;100.00
44297;BME280;51842;47.450;8.654;2024-03-08T00:13:27;95142.78;;;0.22;100.00
44297;BME280;51842;47.450;8.654;2024-03-08T00:15:53;95144.00;;;0.19;100.00
44297;BME280;51842;47.450;8.654;2024-03-08T00:18:19;95149.66;;;0.16;100.00
44297;BME280;51842;47.450;8.654;2024-03-08T00:20:45;95148.28;;;0.07;100.00
44297;BME280;51842;47.450;8.654;2024-03-08T00:23:11;95148.75;;;-0.03;100.00
44297;BME280;51842;47.450;8.654;2024-03-08T00:25:37;95136.28;;;-0.14;100.00
44297;BME280;51842;47.450;8.654;2024-03-08T00:28:04;95147.59;;;-0.20;100.00
44297;BME280;51842;47.450;8.654;2024-03-08T00:30:31;95135.56;;;-0.28;100.00
44297;BME280;51842;47.450;8.654;2024-03-08T00:32:57;95139.16;;;-0.29;100.00
44297;BME280;51842;47.450;8.654;2024-03-08T00:35:23;95126.69;;;-0.27;100.00
44297;BME280;51842;47.450;8.654;2024-03-08T00:37:49;95132.16;;;-0.28;100.00
44297;BME280;51842;47.450;8.654;2024-03-08T00:40:15;95119.25;;;-0.30;100.00
44297;BME280;51842;47.450;8.654;2024-03-08T00:42:41;95123.47;;;-0.29;100.00
44297;BME280;51842;47.450;8.654;2024-03-08T00:45:10;95124.28;;;-0.28;100.00
44297;BME280;51842;47.450;8.654;2024-03-08T00:47:36;95127.09;;;-0.30;100.00
44297;BME280;51842;47.450;8.654;2024-03-08T00:50:02;95124.91;;;-0.33;100.00
44297;BME280;51842;47.450;8.654;2024-03-08T00:52:29;95121.06;;;-0.30;100.00
44297;BME280;51842;47.450;8.654;2024-03-08T00:54:55;95117.44;;;-0.29;100.00
44297;BME280;51842;47.450;8.654;2024-03-08T00:57:21;95114.22;;;-0.25;100.00
44297;BME280;51842;47.450;8.654;2024-03-08T00:59:47;95111.13;;;-0.15;100.00
44297;BME280;51842;47.450;8.654;2024-03-08T01:02:14;95104.09;;;-0.14;100.00
44297;BME280;51842;47.450;8.654;2024-03-08T01:04:40;95094.75;;;-0.04;100.00
44297;BME280;51842;47.450;8.654;2024-03-08T01:07:06;95090.50;;;0.02;100.00
44297;BME280;51842;47.450;8.654;2024-03-08T01:09:32;95087.84;;;0.09;100.00
44297;BME280;51842;47.450;8.654;2024-03-08T01:11:58;95088.22;;;0.12;100.00
44297;BME280;51842;47.450;8.654;2024-03-08T01:14:25;95087.91;;;0.27;100.00
44297;BME280;51842;47.450;8.654;2024-03-08T01:16:55;95094.72;;;0.35;100.00
44297;BME280;51842;47.450;8.654;2024-03-08T01:19:21;95096.53;;;0.34;100.00
44297;BME280;51842;47.450;8.654;2024-03-08T01:21:46;95084.88;;;0.30;100.00
44297;BME280;51842;47.450;8.654;2024-03-08T01:24:12;95085.47;;;0.32;100.00
44297;BME280;51842;47.450;8.654;2024-03-08T01:26:38;95087.66;;;0.35;100.00
44297;BME280;51842;47.450;8.654;2024-03-08T01:29:04;95077.19;;;0.35;100.00
44297;BME280;51842;47.450;8.654;2024-03-08T01:31:31;95080.22;;;0.32;100.00
44297;BME280;51842;47.450;8.654;2024-03-08T01:33:58;95075.78;;;0.33;100.00
44297;BME280;51842;47.450;8.654;2024-03-08T01:36:25;95066.47;;;0.37;100.00
44297;BME280;51842;47.450;8.654;2024-03-08T01:38:52;95072.53;;;0.37;100.00
44297;BME280;51842;47.450;8.654;2024-03-08T01:41:18;95075.53;;;0.41;100.00
44297;BME280;51842;47.450;8.654;2024-03-08T01:43:45;95071.91;;;0.42;100.00
44297;BME280;51842;47.450;8.654;2024-03-08T01:46:22;95072.50;;;0.44;100.00
44297;BME280;51842;47.450;8.654;2024-03-08T01:48:49;95063.19;;;0.48;100.00
44297;BME280;51842;47.450;8.654;2024-03-08T01:51:16;95052.69;;;0.48;100.00
44297;BME280;51842;47.450;8.654;2024-03-08T01:53:47;95056.72;;;0.51;100.00
44297;BME280;51842;47.450;8.654;2024-03-08T01:56:14;95051.25;;;0.52;100.00
44297;BME280;51842;47.450;8.654;2024-03-08T01:58:42;95056.06;;;0.55;100.00
44297;BME280;51842;47.450;8.654;2024-03-08T02:01:13;95044.41;;;0.51;100.00
44297;BME280;51842;47.450;8.654;2024-03-08T02:03:44;95041.94;;;0.56;100.00
44297;BME280;51842;47.450;8.654;2024-03-08T02:06:13;95047.78;;;0.58;100.00
44297;BME280;51842;47.450;8.654;2024-03-08T02:08:45;95038.69;;;0.61;100.00
44297;BME280;51842;47.450;8.654;2024-03-08T02:11:12;95030.59;;;0.62;100.00
44297;BME280;51842;47.450;8.654;2024-03-08T02:13:38;95030.38;;;0.64;100.00
44297;BME280;51842;47.450;8.654;2024-03-08T02:16:04;95034.59;;;0.65;100.00
44297;BME280;51842;47.450;8.654;2024-03-08T02:18:34;95033.59;;;0.66;100.00
44297;BME280;51842;47.450;8.654;2024-03-08T02:21:06;95028.34;;;0.66;100.00
44297;BME280;51842;47.450;8.654;2024-03-08T02:23:33;95027.69;;;0.71;100.00
44297;BME280;51842;47.450;8.654;2024-03-08T02:26:00;95021.00;;;0.75;100.00
44297;BME280;51842;47.450;8.654;2024-03-08T02:28:26;95030.47;;;0.76;100.00
44297;BME280;51842;47.450;8.654;2024-03-08T02:30:52;95024.94;;;0.84;100.00
44297;BME280;51842;47.450;8.654;2024-03-08T02:33:23;95015.69;;;0.81;100.00
44297;BME280;51842;47.450;8.654;2024-03-08T02:35:50;95010.22;;;0.83;100.00
44297;BME280;51842;47.450;8.654;2024-03-08T02:38:22;95011.41;;;0.87;100.00
44297;BME280;51842;47.450;8.654;2024-03-08T02:40:52;95019.63;;;0.90;100.00
44297;BME280;51842;47.450;8.654;2024-03-08T02:43:21;95002.66;;;0.93;100.00
44297;BME280;51842;47.450;8.654;2024-03-08T02:45:51;95005.63;;;0.97;100.00
44297;BME280;51842;47.450;8.654;2024-03-08T02:48:18;95003.44;;;0.93;100.00
44297;BME280;51842;47.450;8.654;2024-03-08T02:50:45;95003.19;;;1.02;100.00
44297;BME280;51842;47.450;8.654;2024-03-08T02:53:12;94998.97;;;1.01;100.00
44297;BME280;51842;47.450;8.654;2024-03-08T02:55:40;95000.31;;;1.03;100.00
44297;BME280;51842;47.450;8.654;2024-03-08T02:58:07;94988.66;;;0.99;100.00
44297;BME280;51842;47.450;8.654;2024-03-08T03:00:37;94984.47;;;0.98;100.00
44297;BME280;51842;47.450;8.654;2024-03-08T03:03:05;94981.84;;;0.98;100.00
44297;BME280;51842;47.450;8.654;2024-03-08T03:05:32;94981.16;;;1.03;100.00
44297;BME280;51842;47.450;8.654;2024-03-08T03:07:58;94981.31;;;1.08;100.00
44297;BME280;51842;47.450;8.654;2024-03-08T03:10:24;94975.84;;;1.09;100.00
44297;BME280;51842;47.450;8.654;2024-03-08T03:12:50;94978.53;;;1.03;100.00
44297;BME280;51842;47.450;8.654;2024-03-08T03:15:17;94972.66;;;1.07;100.00
44297;BME280;51842;47.450;8.654;2024-03-08T03:17:51;94973.00;;;1.11;100.00
44297;BME280;51842;47.450;8.654;2024-03-08T03:20:20;94978.03;;;1.12;100.00
44297;BME280;51842;47.450;8.654;2024-03-08T03:22:53;94970.81;;;1.08;100.00
44297;BME280;51842;47.450;8.654;2024-03-08T03:25:21;94972.66;;;1.07;100.00
44297;BME280;51842;47.450;8.654;2024-03-08T03:27:52;94970.75;;;1.14;100.00
44297;BME280;51842;47.450;8.654;2024-03-08T03:30:23;94975.31;;;1.19;100.00
44297;BME280;51842;47.450;8.654;2024-03-08T03:32:50;94969.88;;;1.21;100.00
44297;BME280;51842;47.450;8.654;2024-03-08T03:35:18;94973.88;;;1.23;100.00
44297;BME280;51842;47.450;8.654;2024-03-08T03:37:44;94972.03;;;1.24;100.00
44297;BME280;51842;47.450;8.654;2024-03-08T03:40:17;94962.66;;;1.16;100.00
44297;BME280;51842;47.450;8.654;2024-03-08T03:42:44;94960.25;;;1.14;100.00
44297;BME280;51842;47.450;8.654;2024-03-08T03:45:11;94968.13;;;1.14;100.00
44297;BME280;51842;47.450;8.654;2024-03-08T03:47:37;94958.41;;;1.15;100.00
44297;BME280;51842;47.450;8.654;2024-03-08T03:50:06;94968.13;;;1.14;100.00
44297;BME280;51842;47.450;8.654;2024-03-08T03:52:32;94964.97;;;1.24;100.00
44297;BME280;51842;47.450;8.654;2024-03-08T03:54:58;94962.44;;;1.18;100.00
44297;BME280;51842;47.450;8.654;2024-03-08T03:57:24;94954.28;;;1.07;100.00
44297;BME280;51842;47.450;8.654;2024-03-08T03:59:49;94955.44;;;1.11;100.00
44297;BME280;51842;47.450;8.654;2024-03-08T04:02:17;94961.19;;;1.20;100.00
44297;BME280;51842;47.450;8.654;2024-03-08T04:04:47;94956.31;;;1.24;100.00
44297;BME280;51842;47.450;8.654;2024-03-08T04:07:13;94951.94;;;1.18;100.00
44297;BME280;51842;47.450;8.654;2024-03-08T04:09:39;94955.59;;;1.17;100.00
44297;BME280;51842;47.450;8.654;2024-03-08T04:12:05;94947.56;;;1.11;100.00
44297;BME280;51842;47.450;8.654;2024-03-08T04:14:31;94953.97;;;1.15;100.00
44297;BME280;51842;47.450;8.654;2024-03-08T04:16:57;94948.72;;;1.15;100.00
44297;BME280;51842;47.450;8.654;2024-03-08T04:19:22;94944.75;;;1.13;100.00
44297;BME280;51842;47.450;8.654;2024-03-08T04:21:49;94943.22;;;1.05;100.00
44297;BME280;51842;47.450;8.654;2024-03-08T04:24:15;94937.06;;;1.11;100.00
44297;BME280;51842;47.450;8.654;2024-03-08T04:26:43;94935.56;;;1.04;100.00
44297;BME280;51842;47.450;8.654;2024-03-08T04:29:09;94942.75;;;1.08;100.00
44297;BME280;51842;47.450;8.654;2024-03-08T04:31:34;94938.91;;;1.11;100.00
44297;BME280;51842;47.450;8.654;2024-03-08T04:34:00;94935.03;;;1.13;100.00
44297;BME280;51842;47.450;8.654;2024-03-08T04:36:27;94933.66;;;1.11;100.00
44297;BME280;51842;47.450;8.654;2024-03-08T04:38:54;94939.09;;;1.09;100.00
44297;BME280;51842;47.450;8.654;2024-03-08T04:41:20;94931.47;;;1.08;100.00
44297;BME280;51842;47.450;8.654;2024-03-08T04:43:46;94929.22;;;1.11;100.00
44297;BME280;51842;47.450;8.654;2024-03-08T04:46:12;94931.69;;;1.06;100.00
44297;BME280;51842;47.450;8.654;2024-03-08T04:48:38;94927.31;;;1.00;100.00
44297;BME280;51842;47.450;8.654;2024-03-08T04:51:04;94930.88;;;1.06;100.00
44297;BME280;51842;47.450;8.654;2024-03-08T04:53:30;94931.47;;;1.08;100.00
44297;BME280;51842;47.450;8.654;2024-03-08T04:55:58;94930.53;;;1.02;100.00
44297;BME280;51842;47.450;8.654;2024-03-08T04:58:24;94925.13;;;0.97;100.00
44297;BME280;51842;47.450;8.654;2024-03-08T05:00:50;94924.78;;;0.93;100.00
44297;BME280;51842;47.450;8.654;2024-03-08T05:03:16;94923.09;;;0.99;100.00
44297;BME280;51842;47.450;8.654;2024-03-08T05:05:42;94925.22;;;0.90;100.00
44297;BME280;51842;47.450;8.654;2024-03-08T05:08:08;94931.41;;;0.96;100.00
44297;BME280;51842;47.450;8.654;2024-03-08T05:10:34;94924.03;;;1.05;100.00
44297;BME280;51842;47.450;8.654;2024-03-08T05:12:59;94930.53;;;1.02;100.00
44297;BME280;51842;47.450;8.654;2024-03-08T05:15:25;94926.88;;;1.03;100.00
44297;BME280;51842;47.450;8.654;2024-03-08T05:17:51;94929.72;;;1.02;100.00
44297;BME280;51842;47.450;8.654;2024-03-08T05:20:17;94919.25;;;1.02;100.00
44297;BME280;51842;47.450;8.654;2024-03-08T05:22:43;94926.44;;;1.06;100.00
44297;BME280;51842;47.450;8.654;2024-03-08T05:25:09;94920.63;;;1.04;100.00
44297;BME280;51842;47.450;8.654;2024-03-08T05:27:36;94909.28;;;0.92;100.00
44297;BME280;51842;47.450;8.654;2024-03-08T05:30:04;94911.09;;;0.91;100.00
44297;BME280;51842;47.450;8.654;2024-03-08T05:32:31;94911.03;;;0.80;100.00
44297;BME280;51842;47.450;8.654;2024-03-08T05:34:57;94915.56;;;0.91;100.00
44297;BME280;51842;47.450;8.654;2024-03-08T05:37:23;94917.50;;;0.96;100.00
44297;BME280;51842;47.450;8.654;2024-03-08T05:39:49;94919.09;;;0.97;100.00
44297;BME280;51842;47.450;8.654;2024-03-08T05:42:14;94917.84;;;0.99;100.00
44297;BME280;51842;47.450;8.654;2024-03-08T05:44:40;94914.16;;;0.88;100.00
44297;BME280;51842;47.450;8.654;2024-03-08T05:47:06;94917.34;;;0.90;100.00
44297;BME280;51842;47.450;8.654;2024-03-08T05:49:32;94919.06;;;0.85;100.00
44297;BME280;51842;47.450;8.654;2024-03-08T05:51:59;94910.06;;;0.92;100.00
44297;BME280;51842;47.450;8.654;2024-03-08T05:54:25;94917.00;;;0.87;100.00
44297;BME280;51842;47.450;8.654;2024-03-08T05:56:52;94912.13;;;0.72;100.00
44297;BME280;51842;47.450;8.654;2024-03-08T05:59:18;94907.47;;;0.74;100.00
44297;BME280;51842;47.450;8.654;2024-03-08T06:01:44;94909.97;;;0.69;100.00
44297;BME280;51842;47.450;8.654;2024-03-08T06:04:11;94911.47;;;0.77;100.00
44297;BME280;51842;47.450;8.654;2024-03-08T06:06:37;94918.97;;;0.73;100.00
44297;BME280;51842;47.450;8.654;2024-03-08T06:09:03;94919.78;;;0.74;100.00
44297;BME280;51842;47.450;8.654;2024-03-08T06:11:36;94917.88;;;0.81;100.00
44297;BME280;51842;47.450;8.654;2024-03-08T06:14:03;94920.28;;;0.82;100.00
44297;BME280;51842;47.450;8.654;2024-03-08T06:16:29;94917.44;;;0.84;100.00
44297;BME280;51842;47.450;8.654;2024-03-08T06:18:58;94915.03;;;0.82;100.00
44297;BME280;51842;47.450;8.654;2024-03-08T06:21:24;94903.81;;;0.75;100.00
44297;BME280;51842;47.450;8.654;2024-03-08T06:23:56;94910.09;;;0.74;100.00
44297;BME280;51842;47.450;8.654;2024-03-08T06:26:24;94911.03;;;0.80;100.00
44297;BME280;51842;47.450;8.654;2024-03-08T06:28:50;94906.94;;;0.84;100.00
44297;BME280;51842;47.450;8.654;2024-03-08T06:31:17;94909.22;;;0.80;100.00
44297;BME280;51842;47.450;8.654;2024-03-08T06:33:43;94905.13;;;0.84;100.00
44297;BME280;51842;47.450;8.654;2024-03-08T06:36:10;94903.88;;;0.87;100.00
44297;BME280;51842;47.450;8.654;2024-03-08T06:38:40;94907.88;;;0.89;100.00
44297;BME280;51842;47.450;8.654;2024-03-08T06:41:09;94906.84;;;0.90;100.00
44297;BME280;51842;47.450;8.654;2024-03-08T06:43:45;94902.66;;;0.89;100.00
44297;BME280;51842;47.450;8.654;2024-03-08T06:46:11;94901.06;;;0.88;100.00
44297;BME280;51842;47.450;8.654;2024-03-08T06:48:39;94897.63;;;0.88;100.00
44297;BME280;51842;47.450;8.654;2024-03-08T06:51:05;94908.31;;;0.86;100.00
44297;BME280;51842;47.450;8.654;2024-03-08T06:53:32;94911.03;;;0.98;100.00
44297;BME280;51842;47.450;8.654;2024-03-08T06:55:58;94909.59;;;1.14;100.00
44297;BME280;51842;47.450;8.654;2024-03-08T06:58:24;94908.13;;;1.18;100.00
44297;BME280;51842;47.450;8.654;2024-03-08T07:00:50;94904.81;;;1.11;100.00
44297;BME280;51842;47.450;8.654;2024-03-08T07:03:18;94903.28;;;1.03;100.00
44297;BME280;51842;47.450;8.654;2024-03-08T07:05:44;94900.44;;;1.05;100.00
44297;BME280;51842;47.450;8.654;2024-03-08T07:08:10;94897.09;;;0.98;100.00
44297;BME280;51842;47.450;8.654;2024-03-08T07:10:40;94902.97;;;1.11;100.00
44297;BME280;51842;47.450;8.654;2024-03-08T07:13:08;94896.69;;;1.12;100.00
44297;BME280;51842;47.450;8.654;2024-03-08T07:15:34;94904.97;;;1.28;100.00
44297;BME280;51842;47.450;8.654;2024-03-08T07:18:01;94902.94;;;1.30;100.00
44297;BME280;51842;47.450;8.654;2024-03-08T07:20:27;94893.31;;;1.24;100.00
44297;BME280;51842;47.450;8.654;2024-03-08T07:22:54;94896.78;;;1.36;100.00
44297;BME280;51842;47.450;8.654;2024-03-08T07:25:21;94892.69;;;1.40;100.00
44297;BME280;51842;47.450;8.654;2024-03-08T07:27:55;94888.28;;;1.52;100.00
44297;BME280;51842;47.450;8.654;2024-03-08T07:30:25;94889.75;;;1.48;100.00
44297;BME280;51842;47.450;8.654;2024-03-08T07:33:10;94893.31;;;1.54;100.00
44297;BME280;51842;47.450;8.654;2024-03-08T07:35:40;94890.50;;;1.67;100.00
44297;BME280;51842;47.450;8.654;2024-03-08T07:38:09;94880.19;;;1.54;100.00
44297;BME280;51842;47.450;8.654;2024-03-08T07:40:37;94876.28;;;1.56;100.00
44297;BME280;51842;47.450;8.654;2024-03-08T07:43:10;94877.78;;;1.52;100.00
44297;BME280;51842;47.450;8.654;2024-03-08T07:45:40;94884.00;;;1.70;100.00
44297;BME280;51842;47.450;8.654;2024-03-08T07:48:07;94881.03;;;1.78;100.00
44297;BME280;51842;47.450;8.654;2024-03-08T07:50:40;94877.84;;;1.88;100.00
44297;BME280;51842;47.450;8.654;2024-03-08T07:53:08;94889.38;;;1.98;100.00
44297;BME280;51842;47.450;8.654;2024-03-08T07:55:34;94875.91;;;2.06;100.00
44297;BME280;51842;47.450;8.654;2024-03-08T07:58:02;94875.31;;;2.16;100.00
44297;BME280;51842;47.450;8.654;2024-03-08T08:00:29;94877.88;;;2.23;100.00
44297;BME280;51842;47.450;8.654;2024-03-08T08:02:57;94873.75;;;2.39;100.00
44297;BME280;51842;47.450;8.654;2024-03-08T08:05:23;94874.19;;;2.36;100.00
44297;BME280;51842;47.450;8.654;2024-03-08T08:07:49;94874.41;;;2.34;100.00
44297;BME280;51842;47.450;8.654;2024-03-08T08:10:16;94875.44;;;2.33;100.00
44297;BME280;51842;47.450;8.654;2024-03-08T08:12:49;94883.56;;;2.31;100.00
44297;BME280;51842;47.450;8.654;2024-03-08T08:15:15;94890.75;;;2.24;100.00
44297;BME280;51842;47.450;8.654;2024-03-08T08:17:42;94893.84;;;2.21;100.00
44297;BME280;51842;47.450;8.654;2024-03-08T08:20:11;94888.47;;;2.28;100.00
44297;BME280;51842;47.450;8.654;2024-03-08T08:22:39;94891.00;;;2.23;100.00
44297;BME280;51842;47.450;8.654;2024-03-08T08:25:07;94884.47;;;2.02;100.00
44297;BME280;51842;47.450;8.654;2024-03-08T08:27:33;94873.94;;;2.25;100.00
44297;BME280;51842;47.450;8.654;2024-03-08T08:29:59;94868.03;;;2.42;100.00
44297;BME280;51842;47.450;8.654;2024-03-08T08:32:25;94865.53;;;2.35;100.00
44297;BME280;51842;47.450;8.654;2024-03-08T08:34:52;94877.28;;;2.33;100.00
44297;BME280;51842;47.450;8.654;2024-03-08T08:37:17;94874.78;;;2.26;100.00
44297;BME280;51842;47.450;8.654;2024-03-08T08:39:43;94861.72;;;2.19;100.00
44297;BME280;51842;47.450;8.654;2024-03-08T08:42:09;94859.94;;;2.20;100.00
44297;BME280;51842;47.450;8.654;2024-03-08T08:44:37;94853.75;;;2.14;100.00
44297;BME280;51842;47.450;8.654;2024-03-08T08:47:03;94853.84;;;2.19;100.00
44297;BME280;51842;47.450;8.654;2024-03-08T08:49:29;94855.69;;;2.30;100.00
44297;BME280;51842;47.450;8.654;2024-03-08T08:51:56;94846.53;;;2.33;100.00
44297;BME280;51842;47.450;8.654;2024-03-08T08:54:24;94858.63;;;2.34;100.00
44297;BME280;51842;47.450;8.654;2024-03-08T08:56:51;94858.44;;;2.36;100.00
44297;BME280;51842;47.450;8.654;2024-03-08T08:59:17;94855.06;;;2.64;100.00
44297;BME280;51842;47.450;8.654;2024-03-08T09:01:46;94865.50;;;2.87;100.00
44297;BME280;51842;47.450;8.654;2024-03-08T09:04:17;94857.34;;;3.00;100.00
44297;BME280;51842;47.450;8.654;2024-03-08T09:06:43;94860.69;;;2.96;100.00
44297;BME280;51842;47.450;8.654;2024-03-08T09:09:10;94856.78;;;2.98;100.00
44297;BME280;51842;47.450;8.654;2024-03-08T09:11:39;94862.97;;;3.04;100.00
44297;BME280;51842;47.450;8.654;2024-03-08T09:14:08;94855.13;;;3.09;100.00
44297;BME280;51842;47.450;8.654;2024-03-08T09:16:35;94849.53;;;2.77;100.00
44297;BME280;51842;47.450;8.654;2024-03-08T09:19:00;94850.56;;;2.76;100.00
44297;BME280;51842;47.450;8.654;2024-03-08T09:21:26;94852.44;;;2.52;100.00
44297;BME280;51842;47.450;8.654;2024-03-08T09:23:53;94835.84;;;2.63;100.00
44297;BME280;51842;47.450;8.654;2024-03-08T09:26:19;94831.88;;;2.89;100.00
44297;BME280;51842;47.450;8.654;2024-03-08T09:28:45;94830.69;;;2.97;100.00
44297;BME280;51842;47.450;8.654;2024-03-08T09:31:12;94820.59;;;2.77;100.00
44297;BME280;51842;47.450;8.654;2024-03-08T09:33:38;94814.88;;;3.09;100.00
44297;BME280;51842;47.450;8.654;2024-03-08T09:36:06;94815.44;;;3.11;100.00
44297;BME280;51842;47.450;8.654;2024-03-08T09:38:33;94813.19;;;3.48;100.00
44297;BME280;51842;47.450;8.654;2024-03-08T09:41:02;94809.66;;;3.42;100.00
44297;BME280;51842;47.450;8.654;2024-03-08T09:43:30;94806.94;;;3.20;100.00
44297;BME280;51842;47.450;8.654;2024-03-08T09:45:59;94793.38;;;3.45;100.00
44297;BME280;51842;47.450;8.654;2024-03-08T09:48:26;94798.41;;;3.47;100.00
44297;BME280;51842;47.450;8.654;2024-03-08T09:50:52;94798.78;;;3.22;100.00
44297;BME280;51842;47.450;8.654;2024-03-08T09:53:19;94790.03;;;3.33;100.00
44297;BME280;51842;47.450;8.654;2024-03-08T09:55:48;94790.13;;;3.55;100.00
44297;BME280;51842;47.450;8.654;2024-03-08T09:58:16;94789.31;;;3.71;100.00
44297;BME280;51842;47.450;8.654;2024-03-08T10:00:56;94796.47;;;3.93;100.00
44297;BME280;51842;47.450;8.654;2024-03-08T10:03:24;94792.16;;;3.87;100.00
44297;BME280;51842;47.450;8.654;2024-03-08T10:05:51;94803.75;;;3.69;100.00
44297;BME280;51842;47.450;8.654;2024-03-08T10:08:17;94786.38;;;3.68;100.00
44297;BME280;51842;47.450;8.654;2024-03-08T10:10:44;94797.53;;;3.58;100.00
44297;BME280;51842;47.450;8.654;2024-03-08T10:13:10;94790.44;;;3.59;100.00
44297;BME280;51842;47.450;8.654;2024-03-08T10:15:39;94788.91;;;3.63;100.00
44297;BME280;51842;47.450;8.654;2024-03-08T10:18:06;94797.22;;;3.55;100.00
44297;BME280;51842;47.450;8.654;2024-03-08T10:20:33;94798.63;;;3.29;100.00
44297;BME280;51842;47.450;8.654;2024-03-08T10:23:00;94793.34;;;3.29;100.00
44297;BME280;51842;47.450;8.654;2024-03-08T10:25:29;94798.22;;;2.91;100.00
44297;BME280;51842;47.450;8.654;2024-03-08T10:27:57;94792.66;;;2.88;100.00
44297;BME280;51842;47.450;8.654;2024-03-08T10:30:23;94791.44;;;3.24;100.00
44297;BME280;51842;47.450;8.654;2024-03-08T10:32:49;94779.41;;;3.79;100.00
44297;BME280;51842;47.450;8.654;2024-03-08T10:35:16;94779.47;;;3.84;98.53
44297;BME280;51842;47.450;8.654;2024-03-08T10:37:52;94771.47;;;4.34;99.02
44297;BME280;51842;47.450;8.654;2024-03-08T10:40:30;94756.13;;;4.53;96.09
44297;BME280;51842;47.450;8.654;2024-03-08T10:43:00;94753.72;;;4.74;94.95
44297;BME280;51842;47.450;8.654;2024-03-08T10:45:40;94769.16;;;4.87;96.50
44297;BME280;51842;47.450;8.654;2024-03-08T10:48:31;94763.38;;;4.41;95.19
44297;BME280;51842;47.450;8.654;2024-03-08T10:50:59;94766.69;;;4.31;97.75
44297;BME280;51842;47.450;8.654;2024-03-08T10:53:29;94767.25;;;4.82;93.96
44297;BME280;51842;47.450;8.654;2024-03-08T10:55:57;94767.91;;;4.95;94.96
44297;BME280;51842;47.450;8.654;2024-03-08T10:58:27;94759.16;;;4.89;92.32
44297;BME280;51842;47.450;8.654;2024-03-08T11:00:57;94752.06;;;4.68;92.79
44297;BME280;51842;47.450;8.654;2024-03-08T11:06:22;94763.47;;;5.00;92.48
44297;BME280;51842;47.450;8.654;2024-03-08T11:08:49;94757.13;;;5.23;91.10
44297;BME280;51842;47.450;8.654;2024-03-08T11:11:32;94761.28;;;5.51;90.56
44297;BME280;51842;47.450;8.654;2024-03-08T11:14:01;94750.22;;;5.22;91.53
44297;BME280;51842;47.450;8.654;2024-03-08T11:19:23;94748.28;;;4.58;90.99
44297;BME280;51842;47.450;8.654;2024-03-08T11:22:02;94740.31;;;4.31;94.72
44297;BME280;51842;47.450;8.654;2024-03-08T11:24:38;94741.47;;;4.18;93.55
44297;BME280;51842;47.450;8.654;2024-03-08T11:27:05;94746.16;;;4.82;92.87
44297;BME280;51842;47.450;8.654;2024-03-08T11:29:36;94734.16;;;5.29;90.79
44297;BME280;51842;47.450;8.654;2024-03-08T11:32:16;94735.34;;;5.80;88.88
44297;BME280;51842;47.450;8.654;2024-03-08T11:34:48;94726.00;;;6.05;89.61
44297;BME280;51842;47.450;8.654;2024-03-08T11:37:19;94717.09;;;5.79;87.50
44297;BME280;51842;47.450;8.654;2024-03-08T11:39:52;94711.19;;;5.67;87.23
44297;BME280;51842;47.450;8.654;2024-03-08T11:42:20;94711.19;;;6.04;83.93
44297;BME280;51842;47.450;8.654;2024-03-08T11:44:47;94705.31;;;6.60;84.09
44297;BME280;51842;47.450;8.654;2024-03-08T11:47:15;94702.44;;;6.77;83.79
44297;BME280;51842;47.450;8.654;2024-03-08T11:49:41;94688.69;;;6.75;84.27
44297;BME280;51842;47.450;8.654;2024-03-08T11:52:15;94696.53;;;6.39;85.02
44297;BME280;51842;47.450;8.654;2024-03-08T11:54:53;94683.72;;;6.10;83.14
44297;BME280;51842;47.450;8.654;2024-03-08T11:57:23;94693.25;;;6.16;83.92
44297;BME280;51842;47.450;8.654;2024-03-08T11:59:54;94693.41;;;6.57;82.94
44297;BME280;51842;47.450;8.654;2024-03-08T12:02:24;94695.06;;;6.79;83.86
44297;BME280;51842;47.450;8.654;2024-03-08T12:05:01;94688.47;;;6.86;80.97
44297;BME280;51842;47.450;8.654;2024-03-08T12:07:29;94689.00;;;7.04;81.10
44297;BME280;51842;47.450;8.654;2024-03-08T12:10:22;94686.09;;;7.10;80.92
44297;BME280;51842;47.450;8.654;2024-03-08T12:12:55;94689.53;;;7.11;79.44
44297;BME280;51842;47.450;8.654;2024-03-08T12:15:24;94686.00;;;6.59;82.03
44297;BME280;51842;47.450;8.654;2024-03-08T12:17:53;94678.09;;;6.80;81.61
44297;BME280;51842;47.450;8.654;2024-03-08T12:20:28;94667.41;;;6.29;80.82
44297;BME280;51842;47.450;8.654;2024-03-08T12:22:58;94675.69;;;6.53;82.97
44297;BME280;51842;47.450;8.654;2024-03-08T12:25:31;94680.22;;;6.83;80.84
44297;BME280;51842;47.450;8.654;2024-03-08T12:28:11;94674.47;;;7.11;81.31
44297;BME280;51842;47.450;8.654;2024-03-08T12:30:51;94672.78;;;6.69;78.12
44297;BME280;51842;47.450;8.654;2024-03-08T12:33:20;94664.22;;;6.32;81.25
44297;BME280;51842;47.450;8.654;2024-03-08T12:35:55;94646.81;;;6.41;80.85
44297;BME280;51842;47.450;8.654;2024-03-08T12:38:22;94658.41;;;6.30;82.33
44297;BME280;51842;47.450;8.654;2024-03-08T12:40:58;94642.41;;;5.94;83.20
44297;BME280;51842;47.450;8.654;2024-03-08T12:43:24;94637.00;;;6.41;83.95
44297;BME280;51842;47.450;8.654;2024-03-08T12:45:50;94616.66;;;6.47;83.00
44297;BME280;51842;47.450;8.654;2024-03-08T12:48:17;94615.06;;;6.41;82.63
44297;BME280;51842;47.450;8.654;2024-03-08T12:50:43;94618.78;;;6.70;84.60
44297;BME280;51842;47.450;8.654;2024-03-08T12:53:14;94611.69;;;6.81;81.95
44297;BME280;51842;47.450;8.654;2024-03-08T12:55:40;94622.28;;;6.97;79.92
44297;BME280;51842;47.450;8.654;2024-03-08T12:58:06;94602.13;;;7.16;77.45
44297;BME280;51842;47.450;8.654;2024-03-08T13:00:35;94607.69;;;7.04;80.32
44297;BME280;51842;47.450;8.654;2024-03-08T13:03:03;94600.28;;;7.16;80.00
44297;BME280;51842;47.450;8.654;2024-03-08T13:05:29;94603.88;;;7.67;80.23
44297;BME280;51842;47.450;8.654;2024-03-08T13:07:55;94605.84;;;7.10;78.79
44297;BME280;51842;47.450;8.654;2024-03-08T13:10:22;94602.38;;;7.35;78.82
44297;BME280;51842;47.450;8.654;2024-03-08T13:12:48;94602.94;;;7.16;77.40